Date,TemperatureHighF,TemperatureAvgF,TemperatureLowF,DewpointHighF,DewpointAvgF,DewpointLowF,HumidityHigh,HumidityAvg,HumidityLow,PressureMaxIn,PressureMinIn,WindSpeedMaxMPH,WindSpeedAvgMPH,GustSpeedMaxMPH,PrecipitationSumIn
2013-4-1,59.9,44.0,36.3,46.3,26.9,11.6,84,52,33,0.00,40.00,24,11,0,0.26
2013-4-2,41.9,35.6,30.6,16.7,13.1,9.3,49,40,28,0.00,40.00,27,10,0,0.16
2013-4-3,47.1,38.0,30.9,19.0,13.0,8.8,59,37,22,0.00,40.00,24,11,0,0.10
2013-4-4,58.6,42.5,30.7,26.1,16.7,10.4,55,38,16,0.00,40.00,16,8,0,0.00
2013-4-5,64.2,47.6,38.5,30.6,26.6,20.9,67,47,21,0.00,40.00,21,7,0,0.00
2013-4-6,51.6,40.6,33.4,25.8,10.3,2.2,56,31,15,0.00,40.00,14,6,0,0.00
2013-4-7,52.9,43.6,31.8,39.8,27.6,13.9,77,55,34,0.00,40.00,23,7,0,0.06
2013-4-8,67.6,53.9,45.3,43.2,40.3,35.8,90,63,32,0.00,40.00,11,5,0,0.00
2013-4-9,73.0,56.2,47.8,51.3,43.8,38.2,89,66,37,0.00,40.00,16,7,0,0.06
2013-4-10,62.6,52.4,46.9,48.2,43.9,41.2,87,73,55,0.00,40.00,11,4,0,0.20
2013-4-11,51.1,47.7,44.2,46.4,40.0,34.1,94,75,63,0.00,40.00,10,5,0,0.07
2013-4-12,43.9,40.2,37.9,38.9,35.6,29.2,96,84,63,0.00,40.00,21,10,0,1.10
2013-4-13,54.9,46.5,37.9,39.3,37.5,34.4,95,72,50,0.00,40.00,9,4,0,0.01
2013-4-14,53.8,48.2,41.7,40.1,30.9,26.4,78,52,36,0.00,40.00,16,7,0,0.00
2013-4-15,53.4,46.4,36.1,39.0,33.2,28.1,76,60,46,0.00,40.00,12,6,0,0.00
2013-4-16,64.0,52.8,40.8,49.3,41.5,35.1,88,67,47,0.00,40.00,21,9,0,0.00
2013-4-17,71.2,60.6,52.0,51.9,37.6,27.8,81,46,22,0.00,40.00,13,6,0,0.00
2013-4-18,65.5,54.9,47.7,42.6,35.1,28.2,68,48,32,0.00,40.00,17,7,0,0.00
2013-4-19,74.5,63.6,53.1,62.9,57.5,43.2,99,82,58,0.00,40.00,26,10,0,0.06
2013-4-20,66.4,55.3,45.9,62.8,41.5,25.1,95,64,36,0.00,40.00,20,8,0,0.96
2013-4-21,55.8,44.4,35.8,29.8,23.2,19.4,62,44,26,0.00,40.00,15,6,0,0.00
2013-4-22,50.2,43.6,36.3,35.3,30.7,24.1,76,61,36,0.00,40.00,20,8,0,0.02
2013-4-23,43.3,42.1,40.8,41.9,38.9,30.7,98,89,65,0.00,40.00,15,7,0,0.22
2013-4-24,76.5,55.7,42.4,51.7,45.5,41.9,98,73,33,0.00,40.00,15,7,0,0.01
2013-4-25,69.4,57.4,48.7,52.8,37.2,24.7,92,52,20,0.00,40.00,19,7,0,0.06
2013-4-26,56.7,50.8,46.2,41.7,36.1,29.7,82,58,46,0.00,40.00,15,6,0,0.00
2013-4-27,62.4,53.2,41.2,42.9,37.1,30.9,96,59,32,0.00,40.00,12,5,0,0.00
2013-4-28,68.4,56.3,42.3,42.3,35.9,28.0,82,49,29,0.00,40.00,15,5,0,0.00
2013-4-29,71.4,58.5,48.7,45.5,37.8,15.0,83,51,17,0.00,40.00,13,5,0,0.00
2013-4-30,66.9,57.2,46.4,38.7,30.0,14.9,68,40,14,0.00,40.00,12,4,0,0.00